sensor_id;sensor_type;location;lat;lon;timestamp;temperature;humidity
30467;DHT22;17258;52.560;13.046;2022-07-25T00:04:23;24.10;40.10
30467;DHT22;17258;52.560;13.046;2022-07-25T00:14:24;24.00;40.30
30467;DHT22;17258;52.560;13.046;2022-07-25T00:24:25;23.90;40.40
30467;DHT22;17258;52.560;13.046;2022-07-25T00:34:26;23.80;40.60
30467;DHT22;17258;52.560;13.046;2022-07-25T00:44:29;23.70;40.60
30467;DHT22;17258;52.560;13.046;2022-07-25T00:54:30;23.70;40.90
30467;DHT22;17258;52.560;13.046;2022-07-25T01:04:32;23.50;40.90
30467;DHT22;17258;52.560;13.046;2022-07-25T01:14:32;23.50;41.00
30467;DHT22;17258;52.560;13.046;2022-07-25T01:24:34;23.30;41.10
30467;DHT22;17258;52.560;13.046;2022-07-25T01:34:35;23.30;41.40
30467;DHT22;17258;52.560;13.046;2022-07-25T01:44:35;23.20;41.50
30467;DHT22;17258;52.560;13.046;2022-07-25T01:54:36;23.10;41.60
30467;DHT22;17258;52.560;13.046;2022-07-25T02:04:37;23.00;41.80
30467;DHT22;17258;52.560;13.046;2022-07-25T02:14:38;22.90;42.10
30467;DHT22;17258;52.560;13.046;2022-07-25T02:24:39;22.80;42.10
30467;DHT22;17258;52.560;13.046;2022-07-25T02:34:39;22.70;42.30
30467;DHT22;17258;52.560;13.046;2022-07-25T02:44:40;22.60;42.20
30467;DHT22;17258;52.560;13.046;2022-07-25T02:54:41;22.60;42.30
30467;DHT22;17258;52.560;13.046;2022-07-25T03:04:41;22.50;42.40
30467;DHT22;17258;52.560;13.046;2022-07-25T03:14:42;22.40;42.40
30467;DHT22;17258;52.560;13.046;2022-07-25T03:24:43;22.30;42.50
30467;DHT22;17258;52.560;13.046;2022-07-25T03:34:43;22.30;42.60
30467;DHT22;17258;52.560;13.046;2022-07-25T03:44:44;22.30;42.70
30467;DHT22;17258;52.560;13.046;2022-07-25T03:54:45;22.20;42.80
30467;DHT22;17258;52.560;13.046;2022-07-25T04:04:45;22.20;42.90
30467;DHT22;17258;52.560;13.046;2022-07-25T04:14:46;22.20;43.00
30467;DHT22;17258;52.560;13.046;2022-07-25T04:24:47;22.10;43.10
30467;DHT22;17258;52.560;13.046;2022-07-25T04:34:47;22.10;43.30
30467;DHT22;17258;52.560;13.046;2022-07-25T04:44:48;22.10;43.50
30467;DHT22;17258;52.560;13.046;2022-07-25T04:54:49;22.20;43.70
30467;DHT22;17258;52.560;13.046;2022-07-25T05:04:49;22.20;43.90
30467;DHT22;17258;52.560;13.046;2022-07-25T05:14:50;22.30;44.30
30467;DHT22;17258;52.560;13.046;2022-07-25T05:24:51;22.50;44.50
30467;DHT22;17258;52.560;13.046;2022-07-25T05:34:51;22.80;44.70
30467;DHT22;17258;52.560;13.046;2022-07-25T05:44:52;23.20;44.60
30467;DHT22;17258;52.560;13.046;2022-07-25T05:54:53;23.50;44.70
30467;DHT22;17258;52.560;13.046;2022-07-25T06:04:53;24.00;44.70
30467;DHT22;17258;52.560;13.046;2022-07-25T06:14:55;24.50;44.50
30467;DHT22;17258;52.560;13.046;2022-07-25T06:24:55;25.00;45.20
30467;DHT22;17258;52.560;13.046;2022-07-25T06:34:56;25.50;44.40
30467;DHT22;17258;52.560;13.046;2022-07-25T06:44:57;26.10;44.20
30467;DHT22;17258;52.560;13.046;2022-07-25T06:54:57;26.70;44.20
30467;DHT22;17258;52.560;13.046;2022-07-25T07:04:59;27.20;43.90
30467;DHT22;17258;52.560;13.046;2022-07-25T07:15:00;27.80;43.60
30467;DHT22;17258;52.560;13.046;2022-07-25T07:25:00;28.20;43.30
30467;DHT22;17258;52.560;13.046;2022-07-25T07:35:01;28.60;43.10
30467;DHT22;17258;52.560;13.046;2022-07-25T07:45:02;28.90;42.80
30467;DHT22;17258;52.560;13.046;2022-07-25T07:55:04;29.30;42.80
30467;DHT22;17258;52.560;13.046;2022-07-25T08:05:25;29.80;43.00
30467;DHT22;17258;52.560;13.046;2022-07-25T08:15:27;30.40;42.90
30467;DHT22;17258;52.560;13.046;2022-07-25T08:25:28;31.20;42.90
30467;DHT22;17258;52.560;13.046;2022-07-25T08:35:30;31.80;42.20
30467;DHT22;17258;52.560;13.046;2022-07-25T08:45:32;32.50;41.70
30467;DHT22;17258;52.560;13.046;2022-07-25T08:55:32;32.90;41.10
30467;DHT22;17258;52.560;13.046;2022-07-25T09:05:34;33.20;40.60
30467;DHT22;17258;52.560;13.046;2022-07-25T09:15:40;33.40;40.30
30467;DHT22;17258;52.560;13.046;2022-07-25T09:25:44;33.50;39.90
30467;DHT22;17258;52.560;13.046;2022-07-25T09:35:44;33.60;39.90
30467;DHT22;17258;52.560;13.046;2022-07-25T09:45:51;33.80;39.80
30467;DHT22;17258;52.560;13.046;2022-07-25T09:55:52;34.00;39.30
30467;DHT22;17258;52.560;13.046;2022-07-25T10:16:14;34.40;39.40
30467;DHT22;17258;52.560;13.046;2022-07-25T10:26:17;34.70;38.60
30467;DHT22;17258;52.560;13.046;2022-07-25T10:36:19;35.00;39.00
30467;DHT22;17258;52.560;13.046;2022-07-25T10:46:20;35.40;38.60
30467;DHT22;17258;52.560;13.046;2022-07-25T10:56:27;35.90;38.40
30467;DHT22;17258;52.560;13.046;2022-07-25T11:06:38;36.40;37.70
30467;DHT22;17258;52.560;13.046;2022-07-25T11:16:40;37.00;37.00
30467;DHT22;17258;52.560;13.046;2022-07-25T11:26:51;37.60;37.20
30467;DHT22;17258;52.560;13.046;2022-07-25T11:36:54;38.40;35.00
30467;DHT22;17258;52.560;13.046;2022-07-25T11:46:56;39.00;35.80
30467;DHT22;17258;52.560;13.046;2022-07-25T11:56:57;39.70;35.00
30467;DHT22;17258;52.560;13.046;2022-07-25T12:07:03;40.10;34.40
30467;DHT22;17258;52.560;13.046;2022-07-25T12:17:05;40.60;32.70
30467;DHT22;17258;52.560;13.046;2022-07-25T12:27:05;40.90;32.20
30467;DHT22;17258;52.560;13.046;2022-07-25T12:37:06;41.30;32.00
30467;DHT22;17258;52.560;13.046;2022-07-25T12:47:07;41.70;31.60
30467;DHT22;17258;52.560;13.046;2022-07-25T12:57:09;42.00;31.00
30467;DHT22;17258;52.560;13.046;2022-07-25T13:07:12;42.10;30.60
30467;DHT22;17258;52.560;13.046;2022-07-25T13:17:12;42.10;30.30
30467;DHT22;17258;52.560;13.046;2022-07-25T13:27:13;42.10;29.90
30467;DHT22;17258;52.560;13.046;2022-07-25T13:37:14;42.00;30.00
30467;DHT22;17258;52.560;13.046;2022-07-25T13:47:14;41.90;29.70
30467;DHT22;17258;52.560;13.046;2022-07-25T13:57:15;41.80;29.70
30467;DHT22;17258;52.560;13.046;2022-07-25T14:07:16;41.70;29.20
30467;DHT22;17258;52.560;13.046;2022-07-25T14:17:16;41.60;29.20
30467;DHT22;17258;52.560;13.046;2022-07-25T14:27:17;41.60;29.00
30467;DHT22;17258;52.560;13.046;2022-07-25T14:37:19;41.50;28.70
30467;DHT22;17258;52.560;13.046;2022-07-25T14:47:20;41.10;28.70
30467;DHT22;17258;52.560;13.046;2022-07-25T14:57:21;40.70;28.70
30467;DHT22;17258;52.560;13.046;2022-07-25T15:07:22;40.40;29.10
30467;DHT22;17258;52.560;13.046;2022-07-25T15:17:23;40.30;29.10
30467;DHT22;17258;52.560;13.046;2022-07-25T15:27:23;40.20;29.40
30467;DHT22;17258;52.560;13.046;2022-07-25T15:37:24;40.30;29.50
30467;DHT22;17258;52.560;13.046;2022-07-25T15:47:25;40.50;29.40
30467;DHT22;17258;52.560;13.046;2022-07-25T15:57:25;40.70;29.30
30467;DHT22;17258;52.560;13.046;2022-07-25T16:07:26;40.80;29.10
30467;DHT22;17258;52.560;13.046;2022-07-25T16:17:27;40.80;28.80
30467;DHT22;17258;52.560;13.046;2022-07-25T16:27:28;40.60;28.80
30467;DHT22;17258;52.560;13.046;2022-07-25T16:37:29;40.20;28.00
30467;DHT22;17258;52.560;13.046;2022-07-25T16:47:30;39.50;29.60
30467;DHT22;17258;52.560;13.046;2022-07-25T16:57:31;38.30;29.60
30467;DHT22;17258;52.560;13.046;2022-07-25T17:07:32;36.70;30.40
30467;DHT22;17258;52.560;13.046;2022-07-25T17:17:33;35.20;32.20
30467;DHT22;17258;52.560;13.046;2022-07-25T17:27:34;33.80;32.90
30467;DHT22;17258;52.560;13.046;2022-07-25T17:37:35;32.90;33.90
30467;DHT22;17258;52.560;13.046;2022-07-25T17:47:36;32.10;34.50
30467;DHT22;17258;52.560;13.046;2022-07-25T17:57:40;31.50;35.30
30467;DHT22;17258;52.560;13.046;2022-07-25T18:07:42;31.10;36.60
30467;DHT22;17258;52.560;13.046;2022-07-25T18:17:45;30.70;36.90
30467;DHT22;17258;52.560;13.046;2022-07-25T18:27:46;30.50;37.50
30467;DHT22;17258;52.560;13.046;2022-07-25T18:37:47;30.30;37.80
30467;DHT22;17258;52.560;13.046;2022-07-25T18:47:48;30.20;38.30
30467;DHT22;17258;52.560;13.046;2022-07-25T18:57:48;30.00;38.70
30467;DHT22;17258;52.560;13.046;2022-07-25T19:07:49;29.80;39.10
30467;DHT22;17258;52.560;13.046;2022-07-25T19:17:50;29.60;39.50
30467;DHT22;17258;52.560;13.046;2022-07-25T19:27:50;29.50;39.90
30467;DHT22;17258;52.560;13.046;2022-07-25T19:37:51;29.30;39.80
30467;DHT22;17258;52.560;13.046;2022-07-25T19:47:52;29.10;40.00
30467;DHT22;17258;52.560;13.046;2022-07-25T19:57:53;29.00;40.60
30467;DHT22;17258;52.560;13.046;2022-07-25T20:07:53;28.90;41.00
30467;DHT22;17258;52.560;13.046;2022-07-25T20:17:54;28.90;41.30
30467;DHT22;17258;52.560;13.046;2022-07-25T20:27:56;28.70;41.40
30467;DHT22;17258;52.560;13.046;2022-07-25T20:37:56;28.60;41.70
30467;DHT22;17258;52.560;13.046;2022-07-25T20:47:57;28.50;41.80
30467;DHT22;17258;52.560;13.046;2022-07-25T20:57:58;28.30;41.90
30467;DHT22;17258;52.560;13.046;2022-07-25T21:07:59;28.10;42.30
30467;DHT22;17258;52.560;13.046;2022-07-25T21:18:01;28.00;42.60
30467;DHT22;17258;52.560;13.046;2022-07-25T21:28:01;27.90;42.80
30467;DHT22;17258;52.560;13.046;2022-07-25T21:38:02;27.70;42.90
30467;DHT22;17258;52.560;13.046;2022-07-25T21:48:03;27.60;43.20
30467;DHT22;17258;52.560;13.046;2022-07-25T21:58:04;27.50;43.60
30467;DHT22;17258;52.560;13.046;2022-07-25T22:08:05;27.40;43.80
30467;DHT22;17258;52.560;13.046;2022-07-25T22:18:06;27.30;44.00
30467;DHT22;17258;52.560;13.046;2022-07-25T22:28:07;27.20;44.30
30467;DHT22;17258;52.560;13.046;2022-07-25T22:38:08;27.10;44.50
30467;DHT22;17258;52.560;13.046;2022-07-25T22:48:08;27.10;44.90
30467;DHT22;17258;52.560;13.046;2022-07-25T22:58:09;27.00;45.10
30467;DHT22;17258;52.560;13.046;2022-07-25T23:08:09;26.90;45.20
30467;DHT22;17258;52.560;13.046;2022-07-25T23:18:10;26.80;45.40
30467;DHT22;17258;52.560;13.046;2022-07-25T23:28:11;26.60;45.60
30467;DHT22;17258;52.560;13.046;2022-07-25T23:38:12;26.50;46.00
30467;DHT22;17258;52.560;13.046;2022-07-25T23:48:13;26.30;46.00
30467;DHT22;17258;52.560;13.046;2022-07-25T23:58:14;26.10;46.20
